sensor_id;sensor_type;location;lat;lon;timestamp;temperature;humidity
60287;DHT22;46141;52.382;5.270;2023-04-03T00:00:10;20.90;61.00
60287;DHT22;46141;52.382;5.270;2023-04-03T00:02:36;20.90;61.00
60287;DHT22;46141;52.382;5.270;2023-04-03T00:05:01;20.90;61.10
60287;DHT22;46141;52.382;5.270;2023-04-03T00:07:27;20.80;61.10
60287;DHT22;46141;52.382;5.270;2023-04-03T00:09:53;20.90;61.10
60287;DHT22;46141;52.382;5.270;2023-04-03T00:12:19;20.80;61.10
60287;DHT22;46141;52.382;5.270;2023-04-03T00:14:44;20.80;61.10
60287;DHT22;46141;52.382;5.270;2023-04-03T00:17:10;20.80;61.10
60287;DHT22;46141;52.382;5.270;2023-04-03T00:19:35;20.80;61.10
60287;DHT22;46141;52.382;5.270;2023-04-03T00:22:01;20.80;61.10
60287;DHT22;46141;52.382;5.270;2023-04-03T00:24:27;20.80;61.10
60287;DHT22;46141;52.382;5.270;2023-04-03T00:26:52;20.80;61.10
60287;DHT22;46141;52.382;5.270;2023-04-03T00:29:18;20.80;61.10
60287;DHT22;46141;52.382;5.270;2023-04-03T00:31:44;20.80;61.10
60287;DHT22;46141;52.382;5.270;2023-04-03T00:34:09;20.80;61.10
60287;DHT22;46141;52.382;5.270;2023-04-03T00:36:35;20.80;61.10
60287;DHT22;46141;52.382;5.270;2023-04-03T00:39:01;20.80;61.00
60287;DHT22;46141;52.382;5.270;2023-04-03T00:41:26;20.80;61.10
60287;DHT22;46141;52.382;5.270;2023-04-03T00:43:52;20.70;61.10
60287;DHT22;46141;52.382;5.270;2023-04-03T00:46:17;20.80;61.10
60287;DHT22;46141;52.382;5.270;2023-04-03T00:48:48;20.70;61.00
60287;DHT22;46141;52.382;5.270;2023-04-03T00:51:19;20.70;61.00
60287;DHT22;46141;52.382;5.270;2023-04-03T00:53:56;20.70;61.00
60287;DHT22;46141;52.382;5.270;2023-04-03T00:56:26;20.70;60.90
60287;DHT22;46141;52.382;5.270;2023-04-03T00:59:00;20.70;60.90
60287;DHT22;46141;52.382;5.270;2023-04-03T01:01:29;20.70;60.80
60287;DHT22;46141;52.382;5.270;2023-04-03T01:03:56;20.80;60.80
60287;DHT22;46141;52.382;5.270;2023-04-03T01:06:27;20.70;60.70
60287;DHT22;46141;52.382;5.270;2023-04-03T01:08:55;20.80;60.70
60287;DHT22;46141;52.382;5.270;2023-04-03T01:11:21;20.70;60.60
60287;DHT22;46141;52.382;5.270;2023-04-03T01:13:48;20.70;60.60
60287;DHT22;46141;52.382;5.270;2023-04-03T01:16:15;20.70;60.60
60287;DHT22;46141;52.382;5.270;2023-04-03T01:18:42;20.70;60.50
60287;DHT22;46141;52.382;5.270;2023-04-03T01:24:27;20.70;60.50
60287;DHT22;46141;52.382;5.270;2023-04-03T01:26:55;20.70;60.40
60287;DHT22;46141;52.382;5.270;2023-04-03T01:29:21;20.70;60.40
60287;DHT22;46141;52.382;5.270;2023-04-03T01:31:55;20.70;60.40
60287;DHT22;46141;52.382;5.270;2023-04-03T01:34:22;20.70;61.00
60287;DHT22;46141;52.382;5.270;2023-04-03T01:36:54;20.70;60.40
60287;DHT22;46141;52.382;5.270;2023-04-03T01:39:21;20.70;60.30
60287;DHT22;46141;52.382;5.270;2023-04-03T01:41:49;20.70;60.30
60287;DHT22;46141;52.382;5.270;2023-04-03T01:44:16;20.70;60.30
60287;DHT22;46141;52.382;5.270;2023-04-03T01:46:49;20.70;60.30
60287;DHT22;46141;52.382;5.270;2023-04-03T01:49:17;20.70;60.20
60287;DHT22;46141;52.382;5.270;2023-04-03T01:51:43;20.70;60.20
60287;DHT22;46141;52.382;5.270;2023-04-03T01:54:11;20.70;60.20
60287;DHT22;46141;52.382;5.270;2023-04-03T01:56:42;20.70;60.20
60287;DHT22;46141;52.382;5.270;2023-04-03T01:59:11;20.70;60.20
60287;DHT22;46141;52.382;5.270;2023-04-03T02:01:40;20.70;60.20
60287;DHT22;46141;52.382;5.270;2023-04-03T02:04:11;20.70;60.10
60287;DHT22;46141;52.382;5.270;2023-04-03T02:06:39;20.70;60.10
60287;DHT22;46141;52.382;5.270;2023-04-03T02:09:09;20.70;60.80
60287;DHT22;46141;52.382;5.270;2023-04-03T02:11:35;20.70;60.10
60287;DHT22;46141;52.382;5.270;2023-04-03T02:14:03;20.70;60.00
60287;DHT22;46141;52.382;5.270;2023-04-03T02:16:30;20.70;59.90
60287;DHT22;46141;52.382;5.270;2023-04-03T02:18:58;20.70;59.90
60287;DHT22;46141;52.382;5.270;2023-04-03T02:21:25;20.80;60.00
60287;DHT22;46141;52.382;5.270;2023-04-03T02:23:51;20.80;59.90
60287;DHT22;46141;52.382;5.270;2023-04-03T02:26:18;20.70;60.00
60287;DHT22;46141;52.382;5.270;2023-04-03T02:28:47;20.80;59.90
60287;DHT22;46141;52.382;5.270;2023-04-03T02:31:13;20.70;59.90
60287;DHT22;46141;52.382;5.270;2023-04-03T02:33:39;20.80;59.90
60287;DHT22;46141;52.382;5.270;2023-04-03T02:36:10;20.80;59.80
60287;DHT22;46141;52.382;5.270;2023-04-03T02:38:36;20.80;59.70
60287;DHT22;46141;52.382;5.270;2023-04-03T02:41:11;20.80;59.70
60287;DHT22;46141;52.382;5.270;2023-04-03T02:43:39;20.80;59.70
60287;DHT22;46141;52.382;5.270;2023-04-03T02:46:05;20.80;59.60
60287;DHT22;46141;52.382;5.270;2023-04-03T02:48:34;20.80;59.60
60287;DHT22;46141;52.382;5.270;2023-04-03T02:51:00;20.80;59.50
60287;DHT22;46141;52.382;5.270;2023-04-03T02:53:29;20.80;59.40
60287;DHT22;46141;52.382;5.270;2023-04-03T02:55:55;20.80;59.40
60287;DHT22;46141;52.382;5.270;2023-04-03T02:58:21;20.80;59.30
60287;DHT22;46141;52.382;5.270;2023-04-03T03:00:47;20.80;59.20
60287;DHT22;46141;52.382;5.270;2023-04-03T03:03:16;20.80;59.20
60287;DHT22;46141;52.382;5.270;2023-04-03T03:05:43;20.80;59.20
60287;DHT22;46141;52.382;5.270;2023-04-03T03:08:14;20.80;59.20
60287;DHT22;46141;52.382;5.270;2023-04-03T03:10:44;20.70;59.20
60287;DHT22;46141;52.382;5.270;2023-04-03T03:13:13;20.70;59.20
60287;DHT22;46141;52.382;5.270;2023-04-03T03:15:41;20.80;59.10
60287;DHT22;46141;52.382;5.270;2023-04-03T03:18:08;20.80;59.00
60287;DHT22;46141;52.382;5.270;2023-04-03T03:20:36;20.80;58.90
60287;DHT22;46141;52.382;5.270;2023-04-03T03:23:05;20.80;58.90
60287;DHT22;46141;52.382;5.270;2023-04-03T03:25:31;20.80;58.90
60287;DHT22;46141;52.382;5.270;2023-04-03T03:27:58;20.80;58.80
60287;DHT22;46141;52.382;5.270;2023-04-03T03:30:26;20.80;58.80
60287;DHT22;46141;52.382;5.270;2023-04-03T03:32:52;20.80;58.80
60287;DHT22;46141;52.382;5.270;2023-04-03T03:35:20;20.80;58.80
60287;DHT22;46141;52.382;5.270;2023-04-03T03:37:49;20.80;58.70
60287;DHT22;46141;52.382;5.270;2023-04-03T03:40:15;20.80;58.80
60287;DHT22;46141;52.382;5.270;2023-04-03T03:42:42;20.80;58.70
60287;DHT22;46141;52.382;5.270;2023-04-03T03:45:10;20.80;58.60
60287;DHT22;46141;52.382;5.270;2023-04-03T03:47:36;20.80;58.60
60287;DHT22;46141;52.382;5.270;2023-04-03T03:50:06;20.80;58.60
60287;DHT22;46141;52.382;5.270;2023-04-03T03:52:34;20.80;58.50
60287;DHT22;46141;52.382;5.270;2023-04-03T03:55:00;20.70;58.50
60287;DHT22;46141;52.382;5.270;2023-04-03T03:57:25;20.80;58.50
60287;DHT22;46141;52.382;5.270;2023-04-03T03:59:54;20.80;58.50
60287;DHT22;46141;52.382;5.270;2023-04-03T04:02:21;20.80;58.40
60287;DHT22;46141;52.382;5.270;2023-04-03T04:04:49;20.80;58.40
60287;DHT22;46141;52.382;5.270;2023-04-03T04:07:15;20.80;58.30
60287;DHT22;46141;52.382;5.270;2023-04-03T04:09:42;20.70;58.30
60287;DHT22;46141;52.382;5.270;2023-04-03T04:12:09;20.80;58.30
60287;DHT22;46141;52.382;5.270;2023-04-03T04:14:36;20.70;58.30
60287;DHT22;46141;52.382;5.270;2023-04-03T04:17:02;20.80;58.30
60287;DHT22;46141;52.382;5.270;2023-04-03T04:19:31;20.80;58.20
60287;DHT22;46141;52.382;5.270;2023-04-03T04:21:59;20.80;58.20
60287;DHT22;46141;52.382;5.270;2023-04-03T04:24:26;20.80;58.20
60287;DHT22;46141;52.382;5.270;2023-04-03T04:26:52;20.80;58.10
60287;DHT22;46141;52.382;5.270;2023-04-03T04:29:19;20.80;58.10
60287;DHT22;46141;52.382;5.270;2023-04-03T04:31:46;20.80;58.10
60287;DHT22;46141;52.382;5.270;2023-04-03T04:34:13;20.80;58.00
60287;DHT22;46141;52.382;5.270;2023-04-03T04:36:41;20.80;58.00
60287;DHT22;46141;52.382;5.270;2023-04-03T04:39:08;20.80;57.90
60287;DHT22;46141;52.382;5.270;2023-04-03T04:41:34;20.80;57.90
60287;DHT22;46141;52.382;5.270;2023-04-03T04:44:00;20.80;57.80
60287;DHT22;46141;52.382;5.270;2023-04-03T04:46:26;20.80;57.90
60287;DHT22;46141;52.382;5.270;2023-04-03T04:48:52;20.80;57.80
60287;DHT22;46141;52.382;5.270;2023-04-03T04:51:18;20.80;57.80
60287;DHT22;46141;52.382;5.270;2023-04-03T04:53:46;20.80;57.90
60287;DHT22;46141;52.382;5.270;2023-04-03T04:56:14;20.70;57.90
60287;DHT22;46141;52.382;5.270;2023-04-03T04:58:41;20.70;57.80
60287;DHT22;46141;52.382;5.270;2023-04-03T05:01:09;20.70;57.80
60287;DHT22;46141;52.382;5.270;2023-04-03T05:03:36;20.80;57.80
60287;DHT22;46141;52.382;5.270;2023-04-03T05:06:02;20.80;57.80
60287;DHT22;46141;52.382;5.270;2023-04-03T05:08:29;20.80;57.70
60287;DHT22;46141;52.382;5.270;2023-04-03T05:10:55;20.70;57.70
60287;DHT22;46141;52.382;5.270;2023-04-03T05:13:20;20.80;57.60
60287;DHT22;46141;52.382;5.270;2023-04-03T05:15:46;20.70;57.60
60287;DHT22;46141;52.382;5.270;2023-04-03T05:18:13;20.70;57.60
60287;DHT22;46141;52.382;5.270;2023-04-03T05:20:39;20.70;57.70
60287;DHT22;46141;52.382;5.270;2023-04-03T05:23:05;20.70;56.50
60287;DHT22;46141;52.382;5.270;2023-04-03T05:25:31;20.70;57.00
60287;DHT22;46141;52.382;5.270;2023-04-03T05:27:57;20.70;57.20
60287;DHT22;46141;52.382;5.270;2023-04-03T05:30:23;20.70;57.20
60287;DHT22;46141;52.382;5.270;2023-04-03T05:32:48;20.70;56.90
60287;DHT22;46141;52.382;5.270;2023-04-03T05:35:14;20.60;56.60
60287;DHT22;46141;52.382;5.270;2023-04-03T05:37:40;20.60;57.50
60287;DHT22;46141;52.382;5.270;2023-04-03T05:40:07;20.60;57.40
60287;DHT22;46141;52.382;5.270;2023-04-03T05:42:33;20.60;57.60
60287;DHT22;46141;52.382;5.270;2023-04-03T05:44:59;20.70;57.40
60287;DHT22;46141;52.382;5.270;2023-04-03T05:47:25;20.70;57.30
60287;DHT22;46141;52.382;5.270;2023-04-03T05:49:51;20.70;56.70
60287;DHT22;46141;52.382;5.270;2023-04-03T05:52:25;20.60;57.10
60287;DHT22;46141;52.382;5.270;2023-04-03T05:54:51;20.70;57.50
60287;DHT22;46141;52.382;5.270;2023-04-03T05:57:16;20.60;57.60
60287;DHT22;46141;52.382;5.270;2023-04-03T05:59:44;20.60;57.70
60287;DHT22;46141;52.382;5.270;2023-04-03T06:02:12;20.60;57.80
60287;DHT22;46141;52.382;5.270;2023-04-03T06:04:39;20.60;57.90
60287;DHT22;46141;52.382;5.270;2023-04-03T06:07:05;20.60;57.70
60287;DHT22;46141;52.382;5.270;2023-04-03T06:09:31;20.70;56.00
60287;DHT22;46141;52.382;5.270;2023-04-03T06:11:59;20.70;57.30
60287;DHT22;46141;52.382;5.270;2023-04-03T06:14:25;20.70;57.40
60287;DHT22;46141;52.382;5.270;2023-04-03T06:16:52;20.70;57.40
60287;DHT22;46141;52.382;5.270;2023-04-03T06:19:18;20.70;57.50
60287;DHT22;46141;52.382;5.270;2023-04-03T06:21:44;20.70;57.40
60287;DHT22;46141;52.382;5.270;2023-04-03T06:24:14;20.70;57.50
60287;DHT22;46141;52.382;5.270;2023-04-03T06:26:41;20.70;57.60
60287;DHT22;46141;52.382;5.270;2023-04-03T06:29:07;20.70;57.60
60287;DHT22;46141;52.382;5.270;2023-04-03T06:31:33;20.70;57.70
60287;DHT22;46141;52.382;5.270;2023-04-03T06:33:59;20.80;57.70
60287;DHT22;46141;52.382;5.270;2023-04-03T06:36:25;20.70;57.70
60287;DHT22;46141;52.382;5.270;2023-04-03T06:38:51;20.80;57.80
60287;DHT22;46141;52.382;5.270;2023-04-03T06:41:17;20.80;57.80
60287;DHT22;46141;52.382;5.270;2023-04-03T06:43:44;20.80;57.90
60287;DHT22;46141;52.382;5.270;2023-04-03T06:46:15;20.80;58.00
60287;DHT22;46141;52.382;5.270;2023-04-03T06:48:41;20.80;58.00
60287;DHT22;46141;52.382;5.270;2023-04-03T06:51:09;20.80;57.50
60287;DHT22;46141;52.382;5.270;2023-04-03T06:53:35;20.80;57.80
60287;DHT22;46141;52.382;5.270;2023-04-03T06:56:01;20.80;58.00
60287;DHT22;46141;52.382;5.270;2023-04-03T06:58:27;20.80;58.10
60287;DHT22;46141;52.382;5.270;2023-04-03T07:00:53;20.80;58.10
60287;DHT22;46141;52.382;5.270;2023-04-03T07:03:18;20.80;58.30
60287;DHT22;46141;52.382;5.270;2023-04-03T07:05:44;20.80;58.40
60287;DHT22;46141;52.382;5.270;2023-04-03T07:08:11;20.80;57.70
60287;DHT22;46141;52.382;5.270;2023-04-03T07:10:37;20.80;57.30
60287;DHT22;46141;52.382;5.270;2023-04-03T07:13:03;20.80;57.30
60287;DHT22;46141;52.382;5.270;2023-04-03T07:15:30;20.80;57.30
60287;DHT22;46141;52.382;5.270;2023-04-03T07:17:59;20.90;57.20
60287;DHT22;46141;52.382;5.270;2023-04-03T07:20:25;20.80;57.10
60287;DHT22;46141;52.382;5.270;2023-04-03T07:22:53;20.90;57.90
60287;DHT22;46141;52.382;5.270;2023-04-03T07:25:19;20.90;58.00
60287;DHT22;46141;52.382;5.270;2023-04-03T07:27:46;20.90;58.60
60287;DHT22;46141;52.382;5.270;2023-04-03T07:30:14;20.90;59.20
60287;DHT22;46141;52.382;5.270;2023-04-03T07:32:42;20.90;59.60
60287;DHT22;46141;52.382;5.270;2023-04-03T07:35:08;20.90;59.60
60287;DHT22;46141;52.382;5.270;2023-04-03T07:37:33;20.90;60.00
60287;DHT22;46141;52.382;5.270;2023-04-03T07:39:59;20.90;60.10
60287;DHT22;46141;52.382;5.270;2023-04-03T07:42:25;20.90;60.20
60287;DHT22;46141;52.382;5.270;2023-04-03T07:44:54;21.00;59.80
60287;DHT22;46141;52.382;5.270;2023-04-03T07:47:31;21.00;59.70
60287;DHT22;46141;52.382;5.270;2023-04-03T07:49:58;21.00;59.90
60287;DHT22;46141;52.382;5.270;2023-04-03T07:52:24;21.00;60.30
60287;DHT22;46141;52.382;5.270;2023-04-03T07:54:53;21.10;60.40
60287;DHT22;46141;52.382;5.270;2023-04-03T07:57:18;21.10;59.70
60287;DHT22;46141;52.382;5.270;2023-04-03T07:59:44;21.10;59.80
60287;DHT22;46141;52.382;5.270;2023-04-03T08:02:10;21.10;59.80
60287;DHT22;46141;52.382;5.270;2023-04-03T08:04:36;21.10;59.50
60287;DHT22;46141;52.382;5.270;2023-04-03T08:07:02;21.10;59.80
60287;DHT22;46141;52.382;5.270;2023-04-03T08:09:30;21.20;59.90
60287;DHT22;46141;52.382;5.270;2023-04-03T08:11:58;21.20;59.80
60287;DHT22;46141;52.382;5.270;2023-04-03T08:14:24;21.20;59.60
60287;DHT22;46141;52.382;5.270;2023-04-03T08:16:52;21.20;59.90
60287;DHT22;46141;52.382;5.270;2023-04-03T08:19:19;21.20;59.70
60287;DHT22;46141;52.382;5.270;2023-04-03T08:21:47;21.20;60.00
60287;DHT22;46141;52.382;5.270;2023-04-03T08:24:13;21.20;59.60
60287;DHT22;46141;52.382;5.270;2023-04-03T08:26:43;21.30;59.70
60287;DHT22;46141;52.382;5.270;2023-04-03T08:29:12;21.30;59.50
60287;DHT22;46141;52.382;5.270;2023-04-03T08:31:38;21.30;59.60
60287;DHT22;46141;52.382;5.270;2023-04-03T08:34:04;21.40;59.60
60287;DHT22;46141;52.382;5.270;2023-04-03T08:36:33;21.40;59.20
60287;DHT22;46141;52.382;5.270;2023-04-03T08:39:01;21.50;59.00
60287;DHT22;46141;52.382;5.270;2023-04-03T08:41:39;21.50;58.90
60287;DHT22;46141;52.382;5.270;2023-04-03T08:44:31;21.50;58.70
60287;DHT22;46141;52.382;5.270;2023-04-03T08:50:01;21.60;58.70
60287;DHT22;46141;52.382;5.270;2023-04-03T08:52:46;21.60;58.60
60287;DHT22;46141;52.382;5.270;2023-04-03T08:58:03;21.70;58.60
60287;DHT22;46141;52.382;5.270;2023-04-03T09:01:00;21.80;58.60
60287;DHT22;46141;52.382;5.270;2023-04-03T09:03:30;21.80;58.50
60287;DHT22;46141;52.382;5.270;2023-04-03T09:06:13;21.90;58.50
60287;DHT22;46141;52.382;5.270;2023-04-03T09:12:04;22.00;58.50
60287;DHT22;46141;52.382;5.270;2023-04-03T09:14:50;22.00;58.40
60287;DHT22;46141;52.382;5.270;2023-04-03T09:22:55;22.10;58.30
60287;DHT22;46141;52.382;5.270;2023-04-03T09:25:33;22.20;58.30
60287;DHT22;46141;52.382;5.270;2023-04-03T09:28:01;22.20;58.30
60287;DHT22;46141;52.382;5.270;2023-04-03T09:30:28;22.30;58.20
60287;DHT22;46141;52.382;5.270;2023-04-03T09:32:57;22.30;58.20
60287;DHT22;46141;52.382;5.270;2023-04-03T09:35:30;22.30;58.20
60287;DHT22;46141;52.382;5.270;2023-04-03T09:38:23;22.40;58.20
60287;DHT22;46141;52.382;5.270;2023-04-03T09:41:07;22.40;58.20
60287;DHT22;46141;52.382;5.270;2023-04-03T09:43:34;22.40;58.10
60287;DHT22;46141;52.382;5.270;2023-04-03T09:46:37;22.50;58.10
60287;DHT22;46141;52.382;5.270;2023-04-03T09:49:05;22.50;58.10
60287;DHT22;46141;52.382;5.270;2023-04-03T09:51:56;22.50;58.00
60287;DHT22;46141;52.382;5.270;2023-04-03T09:54:36;22.60;57.90
60287;DHT22;46141;52.382;5.270;2023-04-03T09:57:09;22.60;57.80
60287;DHT22;46141;52.382;5.270;2023-04-03T09:59:46;22.60;57.70
60287;DHT22;46141;52.382;5.270;2023-04-03T10:02:40;22.60;57.60
60287;DHT22;46141;52.382;5.270;2023-04-03T10:05:48;22.70;57.40
60287;DHT22;46141;52.382;5.270;2023-04-03T10:08:20;22.70;57.30
60287;DHT22;46141;52.382;5.270;2023-04-03T10:10:48;22.70;57.20
60287;DHT22;46141;52.382;5.270;2023-04-03T10:13:18;22.70;57.40
60287;DHT22;46141;52.382;5.270;2023-04-03T10:15:55;22.70;56.90
60287;DHT22;46141;52.382;5.270;2023-04-03T10:21:45;22.80;56.60
60287;DHT22;46141;52.382;5.270;2023-04-03T10:24:21;22.80;56.40
60287;DHT22;46141;52.382;5.270;2023-04-03T10:33:20;22.90;56.20
60287;DHT22;46141;52.382;5.270;2023-04-03T10:36:00;22.90;56.20
60287;DHT22;46141;52.382;5.270;2023-04-03T10:39:00;22.90;55.70
60287;DHT22;46141;52.382;5.270;2023-04-03T10:41:58;22.90;55.60
60287;DHT22;46141;52.382;5.270;2023-04-03T10:47:24;23.00;55.40
60287;DHT22;46141;52.382;5.270;2023-04-03T10:49:56;23.00;55.30
60287;DHT22;46141;52.382;5.270;2023-04-03T10:57:58;23.10;55.20
60287;DHT22;46141;52.382;5.270;2023-04-03T11:00:47;23.10;55.10
60287;DHT22;46141;52.382;5.270;2023-04-03T11:03:29;23.10;55.00
60287;DHT22;46141;52.382;5.270;2023-04-03T11:06:02;23.10;54.90
60287;DHT22;46141;52.382;5.270;2023-04-03T11:11:38;23.20;54.90
60287;DHT22;46141;52.382;5.270;2023-04-03T11:14:17;23.20;54.80
60287;DHT22;46141;52.382;5.270;2023-04-03T11:23:00;23.20;54.60
60287;DHT22;46141;52.382;5.270;2023-04-03T11:25:31;23.20;55.20
60287;DHT22;46141;52.382;5.270;2023-04-03T11:28:20;23.30;54.50
60287;DHT22;46141;52.382;5.270;2023-04-03T11:36:49;23.30;54.80
60287;DHT22;46141;52.382;5.270;2023-04-03T11:39:34;23.30;54.50
60287;DHT22;46141;52.382;5.270;2023-04-03T11:47:55;23.40;54.40
60287;DHT22;46141;52.382;5.270;2023-04-03T11:50:42;23.40;54.40
60287;DHT22;46141;52.382;5.270;2023-04-03T11:58:23;23.40;54.30
60287;DHT22;46141;52.382;5.270;2023-04-03T12:01:05;23.50;54.30
60287;DHT22;46141;52.382;5.270;2023-04-03T12:08:45;23.50;53.50
60287;DHT22;46141;52.382;5.270;2023-04-03T12:11:13;23.40;52.90
60287;DHT22;46141;52.382;5.270;2023-04-03T12:19:33;23.20;51.90
60287;DHT22;46141;52.382;5.270;2023-04-03T12:24:30;23.20;52.20
60287;DHT22;46141;52.382;5.270;2023-04-03T12:46:21;23.60;52.80
60287;DHT22;46141;52.382;5.270;2023-04-03T12:48:49;23.70;52.90
60287;DHT22;46141;52.382;5.270;2023-04-03T12:51:41;23.80;53.00
60287;DHT22;46141;52.382;5.270;2023-04-03T12:56:45;23.80;52.30
60287;DHT22;46141;52.382;5.270;2023-04-03T12:59:24;23.80;51.50
60287;DHT22;46141;52.382;5.270;2023-04-03T13:01:57;23.80;51.60
60287;DHT22;46141;52.382;5.270;2023-04-03T13:04:25;23.90;51.50
60287;DHT22;46141;52.382;5.270;2023-04-03T13:06:52;23.80;51.20
60287;DHT22;46141;52.382;5.270;2023-04-03T13:09:24;23.70;51.80
60287;DHT22;46141;52.382;5.270;2023-04-03T13:12:03;23.70;51.50
60287;DHT22;46141;52.382;5.270;2023-04-03T13:14:37;23.60;51.80
60287;DHT22;46141;52.382;5.270;2023-04-03T13:17:16;23.60;51.90
60287;DHT22;46141;52.382;5.270;2023-04-03T13:19:47;23.60;52.10
60287;DHT22;46141;52.382;5.270;2023-04-03T13:22:36;23.60;52.20
60287;DHT22;46141;52.382;5.270;2023-04-03T13:25:13;23.60;52.20
60287;DHT22;46141;52.382;5.270;2023-04-03T13:27:40;23.60;51.70
60287;DHT22;46141;52.382;5.270;2023-04-03T13:30:25;23.60;52.20
60287;DHT22;46141;52.382;5.270;2023-04-03T13:33:00;23.60;52.00
60287;DHT22;46141;52.382;5.270;2023-04-03T13:35:39;23.60;52.00
60287;DHT22;46141;52.382;5.270;2023-04-03T13:38:25;23.60;52.30
60287;DHT22;46141;52.382;5.270;2023-04-03T13:40:56;23.70;52.00
60287;DHT22;46141;52.382;5.270;2023-04-03T13:43:26;23.60;52.10
60287;DHT22;46141;52.382;5.270;2023-04-03T13:48:27;23.70;52.00
60287;DHT22;46141;52.382;5.270;2023-04-03T13:51:27;23.70;52.20
60287;DHT22;46141;52.382;5.270;2023-04-03T13:54:01;23.70;51.70
60287;DHT22;46141;52.382;5.270;2023-04-03T13:56:36;23.70;51.90
60287;DHT22;46141;52.382;5.270;2023-04-03T13:59:05;23.70;52.10
60287;DHT22;46141;52.382;5.270;2023-04-03T14:01:48;23.70;52.10
60287;DHT22;46141;52.382;5.270;2023-04-03T14:04:23;23.80;52.00
60287;DHT22;46141;52.382;5.270;2023-04-03T14:06:49;23.80;52.10
60287;DHT22;46141;52.382;5.270;2023-04-03T14:09:17;23.80;52.10
60287;DHT22;46141;52.382;5.270;2023-04-03T14:11:44;23.80;51.80
60287;DHT22;46141;52.382;5.270;2023-04-03T14:14:23;23.80;51.90
60287;DHT22;46141;52.382;5.270;2023-04-03T14:16:56;23.80;51.80
60287;DHT22;46141;52.382;5.270;2023-04-03T14:19:34;23.90;52.10
60287;DHT22;46141;52.382;5.270;2023-04-03T14:22:14;23.90;52.10
60287;DHT22;46141;52.382;5.270;2023-04-03T14:24:41;23.90;51.90
60287;DHT22;46141;52.382;5.270;2023-04-03T14:27:20;23.90;51.90
60287;DHT22;46141;52.382;5.270;2023-04-03T14:29:46;23.90;51.90
60287;DHT22;46141;52.382;5.270;2023-04-03T14:32:14;24.00;51.90
60287;DHT22;46141;52.382;5.270;2023-04-03T14:34:41;24.00;51.90
60287;DHT22;46141;52.382;5.270;2023-04-03T14:37:12;24.00;51.80
60287;DHT22;46141;52.382;5.270;2023-04-03T14:39:38;24.10;52.00
60287;DHT22;46141;52.382;5.270;2023-04-03T14:42:04;24.10;52.00
60287;DHT22;46141;52.382;5.270;2023-04-03T14:44:29;24.10;51.80
60287;DHT22;46141;52.382;5.270;2023-04-03T14:46:56;24.20;52.00
60287;DHT22;46141;52.382;5.270;2023-04-03T14:49:25;24.20;51.70
60287;DHT22;46141;52.382;5.270;2023-04-03T14:51:53;24.20;51.70
60287;DHT22;46141;52.382;5.270;2023-04-03T14:54:22;24.20;51.80
60287;DHT22;46141;52.382;5.270;2023-04-03T14:56:51;24.20;51.70
60287;DHT22;46141;52.382;5.270;2023-04-03T14:59:18;24.30;51.90
60287;DHT22;46141;52.382;5.270;2023-04-03T15:01:45;24.30;51.70
60287;DHT22;46141;52.382;5.270;2023-04-03T15:04:20;24.30;51.80
60287;DHT22;46141;52.382;5.270;2023-04-03T15:06:48;24.40;52.20
60287;DHT22;46141;52.382;5.270;2023-04-03T15:09:23;24.40;51.70
60287;DHT22;46141;52.382;5.270;2023-04-03T15:11:50;24.40;51.40
60287;DHT22;46141;52.382;5.270;2023-04-03T15:14:17;24.40;51.30
60287;DHT22;46141;52.382;5.270;2023-04-03T15:16:43;24.40;51.50
60287;DHT22;46141;52.382;5.270;2023-04-03T15:19:09;24.40;51.50
60287;DHT22;46141;52.382;5.270;2023-04-03T15:21:35;24.40;51.50
60287;DHT22;46141;52.382;5.270;2023-04-03T15:24:01;24.40;51.40
60287;DHT22;46141;52.382;5.270;2023-04-03T15:26:27;24.50;51.40
60287;DHT22;46141;52.382;5.270;2023-04-03T15:28:54;24.50;51.30
60287;DHT22;46141;52.382;5.270;2023-04-03T15:31:21;24.50;51.30
60287;DHT22;46141;52.382;5.270;2023-04-03T15:33:46;24.50;52.00
60287;DHT22;46141;52.382;5.270;2023-04-03T15:36:12;24.50;51.30
60287;DHT22;46141;52.382;5.270;2023-04-03T15:38:38;24.50;51.20
60287;DHT22;46141;52.382;5.270;2023-04-03T15:41:04;24.50;51.20
60287;DHT22;46141;52.382;5.270;2023-04-03T15:43:30;24.50;51.30
60287;DHT22;46141;52.382;5.270;2023-04-03T15:45:58;24.60;51.10
60287;DHT22;46141;52.382;5.270;2023-04-03T15:48:26;24.60;51.00
60287;DHT22;46141;52.382;5.270;2023-04-03T15:50:53;24.60;50.90
60287;DHT22;46141;52.382;5.270;2023-04-03T15:53:19;24.60;51.00
60287;DHT22;46141;52.382;5.270;2023-04-03T15:55:45;24.60;50.70
60287;DHT22;46141;52.382;5.270;2023-04-03T15:58:10;24.70;51.00
60287;DHT22;46141;52.382;5.270;2023-04-03T16:00:37;24.70;50.80
60287;DHT22;46141;52.382;5.270;2023-04-03T16:03:07;24.70;50.60
60287;DHT22;46141;52.382;5.270;2023-04-03T16:05:35;24.70;50.70
60287;DHT22;46141;52.382;5.270;2023-04-03T16:08:02;24.80;50.60
60287;DHT22;46141;52.382;5.270;2023-04-03T16:10:28;24.80;50.70
60287;DHT22;46141;52.382;5.270;2023-04-03T16:12:55;24.90;50.70
60287;DHT22;46141;52.382;5.270;2023-04-03T16:15:20;24.90;50.70
60287;DHT22;46141;52.382;5.270;2023-04-03T16:17:46;24.90;50.70
60287;DHT22;46141;52.382;5.270;2023-04-03T16:20:14;24.90;50.80
60287;DHT22;46141;52.382;5.270;2023-04-03T16:22:41;24.90;50.90
60287;DHT22;46141;52.382;5.270;2023-04-03T16:25:08;25.00;50.80
60287;DHT22;46141;52.382;5.270;2023-04-03T16:27:34;25.00;50.60
60287;DHT22;46141;52.382;5.270;2023-04-03T16:30:00;25.00;50.70
60287;DHT22;46141;52.382;5.270;2023-04-03T16:32:29;25.00;50.70
60287;DHT22;46141;52.382;5.270;2023-04-03T16:34:56;25.10;50.60
60287;DHT22;46141;52.382;5.270;2023-04-03T16:37:22;25.10;50.60
60287;DHT22;46141;52.382;5.270;2023-04-03T16:39:47;25.10;50.80
60287;DHT22;46141;52.382;5.270;2023-04-03T16:42:13;25.10;50.80
60287;DHT22;46141;52.382;5.270;2023-04-03T16:44:38;25.00;51.30
60287;DHT22;46141;52.382;5.270;2023-04-03T16:47:06;25.00;50.90
60287;DHT22;46141;52.382;5.270;2023-04-03T16:49:31;25.00;50.90
60287;DHT22;46141;52.382;5.270;2023-04-03T16:52:01;25.00;50.40
60287;DHT22;46141;52.382;5.270;2023-04-03T16:54:27;24.90;49.90
60287;DHT22;46141;52.382;5.270;2023-04-03T16:56:53;24.90;50.30
60287;DHT22;46141;52.382;5.270;2023-04-03T16:59:19;24.80;50.60
60287;DHT22;46141;52.382;5.270;2023-04-03T17:01:45;24.80;50.90
60287;DHT22;46141;52.382;5.270;2023-04-03T17:04:10;24.70;51.00
60287;DHT22;46141;52.382;5.270;2023-04-03T17:06:38;24.60;51.00
60287;DHT22;46141;52.382;5.270;2023-04-03T17:09:05;24.60;51.10
60287;DHT22;46141;52.382;5.270;2023-04-03T17:11:31;24.50;51.00
60287;DHT22;46141;52.382;5.270;2023-04-03T17:13:58;24.40;51.10
60287;DHT22;46141;52.382;5.270;2023-04-03T17:16:24;24.40;51.10
60287;DHT22;46141;52.382;5.270;2023-04-03T17:18:52;24.40;51.10
60287;DHT22;46141;52.382;5.270;2023-04-03T17:21:20;24.30;51.20
60287;DHT22;46141;52.382;5.270;2023-04-03T17:23:58;24.20;51.30